createdAt,value
2019-03-16T00:00:01.399Z,10.40
2019-03-16T00:02:30.484Z,10.70
2019-03-16T00:04:58.371Z,10.50
2019-03-16T00:07:32.986Z,10.40
2019-03-16T00:09:56.104Z,10.50
2019-03-16T00:12:25.269Z,10.40
2019-03-16T00:14:53.203Z,10.70
2019-03-16T00:17:23.711Z,10.40
2019-03-16T00:19:51.016Z,10.70
2019-03-16T00:22:18.884Z,10.50
2019-03-16T00:24:47.004Z,10.60
2019-03-16T00:27:15.463Z,10.20
2019-03-16T00:29:43.429Z,10.80
2019-03-16T00:32:13.781Z,10.60
2019-03-16T00:34:42.008Z,10.60
2019-03-16T00:37:09.956Z,10.30
2019-03-16T00:39:37.998Z,10.80
2019-03-16T00:42:05.960Z,10.90
2019-03-16T00:44:34.884Z,10.50
2019-03-16T00:47:03.617Z,10.30
2019-03-16T00:49:33.575Z,10.80
2019-03-16T00:52:01.357Z,10.80
2019-03-16T00:54:29.995Z,10.80
2019-03-16T00:56:58.007Z,10.70
2019-03-16T00:59:25.971Z,10.90
2019-03-16T01:01:55.206Z,10.50
2019-03-16T01:04:23.320Z,10.50
2019-03-16T01:06:51.435Z,10.50
2019-03-16T01:09:19.901Z,10.70
2019-03-16T01:11:48.925Z,10.70
2019-03-16T01:14:17.494Z,10.80
2019-03-16T01:16:45.370Z,10.80
2019-03-16T01:19:13.622Z,10.30
2019-03-16T01:21:41.677Z,10.80
2019-03-16T01:24:09.687Z,10.80
2019-03-16T01:26:37.923Z,10.50
2019-03-16T01:29:07.081Z,10.70
2019-03-16T01:31:34.979Z,10.30
2019-03-16T01:34:04.123Z,10.40
2019-03-16T01:36:32.117Z,10.40
2019-03-16T01:39:00.210Z,10.10
2019-03-16T01:41:28.044Z,10.50
2019-03-16T01:43:56.427Z,10.40
2019-03-16T01:46:24.405Z,10.30
2019-03-16T01:48:54.223Z,10.20
2019-03-16T01:51:22.053Z,10.40
2019-03-16T01:53:50.291Z,10.30
2019-03-16T01:56:18.657Z,10.10
2019-03-16T01:58:46.733Z,10.10
2019-03-16T02:01:14.564Z,10.10
2019-03-16T02:03:42.391Z,10.30
2019-03-16T02:06:10.446Z,10.10
2019-03-16T02:08:38.268Z,10.00
2019-03-16T02:11:08.181Z,10.30
2019-03-16T02:13:36.205Z,10.10
2019-03-16T02:16:10.804Z,10.10
2019-03-16T02:18:34.238Z,10.30
2019-03-16T02:21:03.587Z,10.30
2019-03-16T02:23:35.437Z,10.10
2019-03-16T02:26:06.584Z,9.80
2019-03-16T02:28:34.870Z,10.10
2019-03-16T02:31:03.050Z,9.80
2019-03-16T02:33:31.148Z,10.00
2019-03-16T02:35:59.221Z,9.60
2019-03-16T02:38:27.610Z,9.70
2019-03-16T02:40:55.817Z,9.80
2019-03-16T02:43:31.591Z,9.70
2019-03-16T02:46:01.534Z,9.80
2019-03-16T02:48:32.726Z,10.00
2019-03-16T02:51:00.770Z,9.80
2019-03-16T02:53:28.812Z,10.00
2019-03-16T02:55:56.997Z,9.70
2019-03-16T02:58:24.999Z,9.90
2019-03-16T03:00:52.955Z,9.80
2019-03-16T03:03:29.103Z,9.70
2019-03-16T03:05:54.146Z,9.90
2019-03-16T03:08:22.711Z,9.80
2019-03-16T03:10:51.037Z,10.10
2019-03-16T03:13:19.126Z,10.20
2019-03-16T03:15:47.032Z,10.00
2019-03-16T03:18:15.146Z,10.30
2019-03-16T03:20:45.061Z,9.90
2019-03-16T03:23:12.996Z,9.90
2019-03-16T03:25:41.137Z,10.10
2019-03-16T03:28:09.317Z,10.10
2019-03-16T03:30:37.488Z,10.10
2019-03-16T03:33:08.944Z,10.50
2019-03-16T03:35:37.076Z,10.40
2019-03-16T03:38:05.232Z,10.30
2019-03-16T03:40:36.106Z,10.30
2019-03-16T03:43:04.724Z,10.50
2019-03-16T03:45:34.747Z,10.20
2019-03-16T03:48:04.369Z,10.40
2019-03-16T03:50:32.208Z,10.30
2019-03-16T03:53:00.029Z,10.60
2019-03-16T03:55:30.205Z,10.50
2019-03-16T03:57:58.766Z,10.30
2019-03-16T04:00:27.381Z,11.00
2019-03-16T04:02:56.093Z,10.20
2019-03-16T04:05:24.834Z,10.40
2019-03-16T04:07:56.416Z,10.10
2019-03-16T04:10:24.716Z,10.30
2019-03-16T04:12:53.154Z,10.10
2019-03-16T04:15:21.263Z,10.60
2019-03-16T04:17:50.894Z,10.60
2019-03-16T04:20:18.870Z,10.30
2019-03-16T04:22:47.024Z,10.20
2019-03-16T04:25:14.818Z,10.30
2019-03-16T04:27:42.840Z,10.40
2019-03-16T04:30:10.846Z,10.50
2019-03-16T04:32:38.702Z,10.30
2019-03-16T04:35:08.077Z,10.80
2019-03-16T04:37:36.419Z,10.80
2019-03-16T04:40:04.934Z,10.30
2019-03-16T04:42:32.947Z,10.70
2019-03-16T04:45:00.749Z,10.70
2019-03-16T04:47:31.488Z,10.80
2019-03-16T04:50:00.829Z,10.30
2019-03-16T04:52:28.689Z,10.80
2019-03-16T04:54:59.184Z,10.70
2019-03-16T04:57:27.248Z,10.40
2019-03-16T04:59:55.484Z,10.30
2019-03-16T05:02:23.797Z,10.60
2019-03-16T05:04:51.651Z,10.30
2019-03-16T05:07:19.800Z,10.80
2019-03-16T05:09:47.674Z,10.60
2019-03-16T05:12:16.537Z,10.20
2019-03-16T05:14:44.819Z,10.80
2019-03-16T05:17:12.664Z,10.50
2019-03-16T05:19:40.610Z,10.20
2019-03-16T05:22:09.718Z,10.30
2019-03-16T05:24:37.613Z,10.50
2019-03-16T05:27:05.402Z,10.50
2019-03-16T05:29:33.179Z,10.50
2019-03-16T05:32:01.078Z,10.20
2019-03-16T05:34:28.829Z,10.40
2019-03-16T05:36:56.714Z,10.30
2019-03-16T05:39:24.507Z,10.40
2019-03-16T05:41:52.294Z,10.30
2019-03-16T05:44:20.194Z,10.20
2019-03-16T05:46:47.975Z,10.30
2019-03-16T05:49:15.903Z,10.20
2019-03-16T05:51:43.730Z,9.90
2019-03-16T05:54:11.649Z,10.20
2019-03-16T05:56:39.562Z,10.20
2019-03-16T05:59:07.342Z,10.30
2019-03-16T06:01:35.291Z,10.20
2019-03-16T06:04:03.113Z,10.20
2019-03-16T06:06:30.965Z,10.40
2019-03-16T06:08:58.827Z,10.40
2019-03-16T06:11:26.736Z,10.50
2019-03-16T06:13:54.635Z,10.60
2019-03-16T06:16:22.461Z,10.60
2019-03-16T06:18:50.265Z,10.80
2019-03-16T06:21:18.165Z,10.70
2019-03-16T06:23:45.947Z,10.80
2019-03-16T06:26:13.735Z,10.90
2019-03-16T06:28:41.618Z,10.90
2019-03-16T06:31:09.388Z,10.80
2019-03-16T06:33:37.397Z,10.90
2019-03-16T06:36:05.363Z,10.70
2019-03-16T06:38:33.146Z,10.60
2019-03-16T06:41:00.953Z,10.60
2019-03-16T06:43:28.842Z,10.70
2019-03-16T06:45:56.643Z,10.90
2019-03-16T06:48:24.545Z,10.80
2019-03-16T06:50:52.340Z,10.80
2019-03-16T06:53:20.147Z,11.00
2019-03-16T06:55:48.317Z,10.90
2019-03-16T06:58:16.087Z,11.00
2019-03-16T07:00:43.878Z,10.80
2019-03-16T07:03:13.687Z,10.70
2019-03-16T07:05:41.479Z,10.80
2019-03-16T07:08:11.548Z,10.90
2019-03-16T07:10:39.427Z,10.70
2019-03-16T07:13:07.231Z,10.70
2019-03-16T07:15:35.392Z,11.00
2019-03-16T07:18:03.194Z,11.00
2019-03-16T07:20:31.114Z,10.90
2019-03-16T07:22:58.923Z,11.10
2019-03-16T07:25:26.728Z,10.90
2019-03-16T07:27:54.684Z,10.60
2019-03-16T07:30:22.486Z,10.80
2019-03-16T07:32:50.273Z,11.00
2019-03-16T07:35:18.266Z,10.90
2019-03-16T07:37:46.061Z,10.70
2019-03-16T07:40:13.990Z,10.90
2019-03-16T07:42:41.970Z,10.70
2019-03-16T07:45:09.818Z,10.80
2019-03-16T07:47:37.617Z,10.90
2019-03-16T07:50:06.100Z,10.80
2019-03-16T07:52:34.004Z,10.90
2019-03-16T07:55:01.824Z,11.00
2019-03-16T07:57:39.533Z,11.00
2019-03-16T07:59:59.764Z,10.90
2019-03-16T08:02:27.611Z,10.80
2019-03-16T08:04:55.504Z,11.10
2019-03-16T08:07:23.298Z,10.70
2019-03-16T08:09:52.692Z,10.80
2019-03-16T08:12:20.650Z,10.90
2019-03-16T08:14:48.446Z,10.90
2019-03-16T08:17:16.474Z,10.90
2019-03-16T08:19:44.281Z,10.70
2019-03-16T08:22:12.075Z,10.80
2019-03-16T08:24:40.096Z,10.90
2019-03-16T08:27:08.062Z,10.90
2019-03-16T08:29:35.974Z,11.00
2019-03-16T08:32:03.804Z,10.80
2019-03-16T08:34:31.593Z,11.00
2019-03-16T08:36:59.579Z,10.90
2019-03-16T08:39:27.359Z,11.00
2019-03-16T08:41:55.298Z,10.90
2019-03-16T08:44:23.205Z,10.90
2019-03-16T08:46:51.020Z,10.70
2019-03-16T08:49:18.949Z,10.60
2019-03-16T08:51:46.804Z,10.50
2019-03-16T08:54:14.739Z,10.80
2019-03-16T08:56:42.511Z,10.70
2019-03-16T08:59:10.364Z,11.10
2019-03-16T09:01:38.236Z,10.90
2019-03-16T09:04:06.073Z,11.30
2019-03-16T09:06:33.980Z,11.40
2019-03-16T09:09:01.791Z,11.20
2019-03-16T09:11:29.731Z,11.60
2019-03-16T09:13:58.384Z,11.80
2019-03-16T09:16:26.401Z,11.70
2019-03-16T09:18:54.196Z,12.10
2019-03-16T09:21:22.124Z,12.20
2019-03-16T09:23:50.341Z,11.80
2019-03-16T09:26:18.165Z,12.10
2019-03-16T09:28:46.074Z,11.90
2019-03-16T09:31:14.014Z,12.00
2019-03-16T09:33:41.840Z,12.10
2019-03-16T09:36:09.865Z,11.70
2019-03-16T09:38:37.769Z,11.90
2019-03-16T09:41:05.576Z,12.20
2019-03-16T09:43:33.440Z,12.10
2019-03-16T09:46:01.392Z,11.80
2019-03-16T09:48:29.310Z,12.00
2019-03-16T09:50:57.075Z,12.20
2019-03-16T09:53:24.879Z,12.10
2019-03-16T09:55:52.805Z,11.90
2019-03-16T09:58:30.748Z,11.90
2019-03-16T10:00:50.532Z,12.00
2019-03-16T10:03:18.306Z,12.00
2019-03-16T10:05:46.115Z,12.10
2019-03-16T10:08:14.053Z,12.00
2019-03-16T10:10:41.820Z,12.20
2019-03-16T10:13:09.632Z,11.80
2019-03-16T10:15:38.438Z,12.00
2019-03-16T10:18:06.269Z,12.00
2019-03-16T10:20:34.247Z,12.10
2019-03-16T10:23:02.231Z,11.90
2019-03-16T10:25:30.259Z,12.00
2019-03-16T10:27:58.164Z,12.00
2019-03-16T10:30:25.966Z,12.00
2019-03-16T10:32:53.888Z,12.10
2019-03-16T10:35:21.670Z,11.90
2019-03-16T10:37:49.573Z,12.60
2019-03-16T10:40:17.410Z,12.60
2019-03-16T10:42:45.274Z,12.60
2019-03-16T10:45:13.161Z,12.40
2019-03-16T10:47:41.029Z,12.50
2019-03-16T10:50:09.261Z,12.60
2019-03-16T10:52:37.196Z,12.20
2019-03-16T10:55:05.632Z,12.10
2019-03-16T10:57:35.241Z,12.50
2019-03-16T11:00:04.531Z,12.50
2019-03-16T11:02:32.602Z,12.50
2019-03-16T11:05:00.612Z,12.30
2019-03-16T11:07:28.416Z,12.50
2019-03-16T11:09:56.209Z,12.40
2019-03-16T11:12:24.087Z,12.40
2019-03-16T11:14:51.925Z,12.70
2019-03-16T11:17:22.243Z,12.40
2019-03-16T11:19:50.312Z,12.40
2019-03-16T11:22:18.264Z,12.50
2019-03-16T11:24:46.250Z,12.60
2019-03-16T11:27:17.032Z,12.50
2019-03-16T11:29:43.891Z,12.50
2019-03-16T11:32:11.903Z,12.50
2019-03-16T11:34:39.695Z,12.40
2019-03-16T11:37:07.643Z,12.50
2019-03-16T11:39:35.446Z,12.40
2019-03-16T11:42:03.266Z,12.50
2019-03-16T11:44:31.193Z,12.60
2019-03-16T11:46:59.145Z,12.60
2019-03-16T11:49:26.938Z,12.60
2019-03-16T11:51:55.076Z,13.10
2019-03-16T11:54:22.876Z,13.00
2019-03-16T11:56:50.923Z,13.00
2019-03-16T11:59:21.761Z,13.00
2019-03-16T12:01:48.919Z,12.50
2019-03-16T12:04:17.202Z,12.40
2019-03-16T12:06:45.015Z,12.40
2019-03-16T12:09:12.859Z,12.70
2019-03-16T12:11:40.918Z,12.60
2019-03-16T12:14:08.842Z,13.10
2019-03-16T12:16:36.665Z,12.40
2019-03-16T12:19:04.531Z,12.70
2019-03-16T12:21:32.617Z,12.40
2019-03-16T12:24:00.596Z,12.80
2019-03-16T12:26:28.389Z,13.10
2019-03-16T12:28:56.223Z,12.90
2019-03-16T12:31:24.161Z,12.90
2019-03-16T12:33:52.170Z,12.90
2019-03-16T12:36:20.000Z,13.00
2019-03-16T12:38:47.801Z,13.00
2019-03-16T12:41:15.708Z,13.10
2019-03-16T12:43:43.503Z,12.90
2019-03-16T12:46:11.345Z,12.80
2019-03-16T12:48:39.253Z,13.00
2019-03-16T12:51:07.279Z,12.60
2019-03-16T12:53:35.090Z,12.60
2019-03-16T12:56:03.338Z,12.40
2019-03-16T12:58:31.396Z,12.80
2019-03-16T13:00:59.259Z,12.50
2019-03-16T13:03:27.060Z,12.70
2019-03-16T13:05:55.341Z,12.60
2019-03-16T13:08:24.368Z,12.70
2019-03-16T13:10:52.273Z,12.70
2019-03-16T13:13:20.254Z,12.70
2019-03-16T13:15:48.232Z,12.40
2019-03-16T13:18:16.153Z,12.40
2019-03-16T13:20:45.419Z,12.70
2019-03-16T13:23:13.435Z,12.80
2019-03-16T13:25:41.556Z,12.50
2019-03-16T13:28:09.426Z,12.60
2019-03-16T13:30:37.219Z,12.50
2019-03-16T13:33:05.716Z,12.80
2019-03-16T13:35:33.650Z,12.70
2019-03-16T13:38:01.465Z,13.10
2019-03-16T13:40:29.524Z,12.40
2019-03-16T13:42:57.474Z,12.70
2019-03-16T13:45:25.289Z,12.60
2019-03-16T13:47:53.156Z,12.70
2019-03-16T13:50:21.407Z,12.40
2019-03-16T13:52:49.693Z,13.00
2019-03-16T13:55:17.522Z,12.90
2019-03-16T13:57:45.332Z,12.60
2019-03-16T14:00:14.118Z,12.80
2019-03-16T14:02:42.441Z,12.70
2019-03-16T14:05:10.657Z,12.60
2019-03-16T14:07:38.970Z,12.70
2019-03-16T14:10:11.340Z,12.50
2019-03-16T14:12:39.217Z,12.50
2019-03-16T14:15:07.574Z,12.70
2019-03-16T14:17:35.808Z,13.00
2019-03-16T14:20:04.550Z,12.50
2019-03-16T14:22:32.612Z,13.00
2019-03-16T14:25:00.458Z,13.10
2019-03-16T14:27:28.484Z,12.60
2019-03-16T14:29:56.479Z,12.70
2019-03-16T14:32:24.428Z,13.10
2019-03-16T14:34:54.370Z,12.50
2019-03-16T14:37:22.544Z,12.70
2019-03-16T14:39:50.594Z,12.40
2019-03-16T14:42:18.858Z,12.50
2019-03-16T14:44:46.701Z,12.60
2019-03-16T14:47:14.729Z,12.70
2019-03-16T14:49:42.753Z,12.60
2019-03-16T14:52:11.071Z,12.60
2019-03-16T14:54:39.042Z,12.70
2019-03-16T14:57:06.881Z,12.60
2019-03-16T14:59:34.883Z,12.50
2019-03-16T15:02:02.697Z,12.40
2019-03-16T15:04:30.732Z,12.40
2019-03-16T15:06:58.836Z,12.80
2019-03-16T15:09:28.083Z,12.40
2019-03-16T15:11:56.210Z,12.60
2019-03-16T15:14:25.308Z,12.50
2019-03-16T15:16:53.109Z,12.60
2019-03-16T15:19:21.134Z,12.40
2019-03-16T15:21:49.122Z,12.50
2019-03-16T15:24:17.090Z,12.70
2019-03-16T15:26:44.943Z,12.60
2019-03-16T15:29:12.770Z,12.60
2019-03-16T15:31:40.792Z,12.60
2019-03-16T15:34:08.633Z,12.40
2019-03-16T15:36:36.449Z,12.50
2019-03-16T15:39:06.783Z,12.50
2019-03-16T15:41:36.584Z,12.60
2019-03-16T15:44:04.516Z,12.30
2019-03-16T15:46:32.524Z,12.40
2019-03-16T15:49:00.688Z,12.60
2019-03-16T15:51:28.548Z,12.50
2019-03-16T15:53:56.545Z,12.50
2019-03-16T15:56:27.494Z,12.70
2019-03-16T15:58:54.239Z,12.40
2019-03-16T16:01:22.227Z,12.50
2019-03-16T16:03:51.308Z,12.50
2019-03-16T16:06:19.229Z,12.60
2019-03-16T16:08:47.291Z,12.70
2019-03-16T16:11:15.321Z,12.60
2019-03-16T16:13:43.176Z,12.60
2019-03-16T16:16:11.187Z,12.40
2019-03-16T16:18:39.252Z,12.50
2019-03-16T16:21:07.223Z,12.40
2019-03-16T16:23:35.043Z,12.40
2019-03-16T16:26:02.880Z,12.50
2019-03-16T16:28:36.110Z,12.40
2019-03-16T16:31:15.707Z,12.50
2019-03-16T16:33:33.709Z,12.60
2019-03-16T16:36:01.638Z,12.50
2019-03-16T16:38:29.755Z,12.50
2019-03-16T16:40:57.552Z,12.40
2019-03-16T16:43:25.556Z,12.30
2019-03-16T16:45:53.385Z,12.50
2019-03-16T16:48:21.586Z,12.50
2019-03-16T16:50:51.211Z,12.30
2019-03-16T16:53:19.133Z,12.40
2019-03-16T16:55:47.136Z,12.40
2019-03-16T16:58:14.962Z,12.60
2019-03-16T17:00:42.802Z,12.40
2019-03-16T17:03:10.858Z,12.40
2019-03-16T17:05:38.830Z,12.50
2019-03-16T17:08:06.659Z,12.60
2019-03-16T17:10:34.500Z,12.50
2019-03-16T17:13:02.447Z,12.60
2019-03-16T17:15:30.309Z,12.40
2019-03-16T17:17:59.998Z,12.40
2019-03-16T17:20:28.215Z,12.50
2019-03-16T17:22:56.141Z,12.30
2019-03-16T17:25:24.100Z,12.40
2019-03-16T17:27:54.343Z,12.40
2019-03-16T17:30:24.187Z,12.20
2019-03-16T17:32:52.007Z,12.50
2019-03-16T17:35:20.047Z,12.40
2019-03-16T17:37:47.890Z,12.60
2019-03-16T17:40:15.761Z,12.70
2019-03-16T17:42:43.859Z,12.60
2019-03-16T17:45:11.677Z,12.70
2019-03-16T17:47:39.517Z,12.40
2019-03-16T17:50:08.002Z,12.40
2019-03-16T17:52:35.807Z,12.70
2019-03-16T17:55:04.579Z,12.40
2019-03-16T17:57:32.741Z,12.70
2019-03-16T18:00:00.530Z,12.60
2019-03-16T18:02:28.363Z,12.50
2019-03-16T18:04:56.332Z,12.60
2019-03-16T18:07:24.174Z,12.30
2019-03-16T18:09:51.976Z,12.60
2019-03-16T18:12:19.947Z,12.30
2019-03-16T18:14:47.973Z,12.40
2019-03-16T18:17:15.768Z,12.60
2019-03-16T18:19:43.904Z,12.60
2019-03-16T18:22:11.723Z,12.60
2019-03-16T18:24:39.722Z,12.50
2019-03-16T18:27:07.557Z,12.70
2019-03-16T18:29:37.203Z,12.40
2019-03-16T18:32:08.149Z,12.50
2019-03-16T18:34:37.436Z,12.40
2019-03-16T18:37:07.768Z,12.40
2019-03-16T18:39:35.663Z,12.40
2019-03-16T18:42:03.914Z,12.60
2019-03-16T18:44:31.912Z,12.50
2019-03-16T18:46:59.756Z,12.40
2019-03-16T18:49:27.614Z,12.60
2019-03-16T18:51:55.531Z,12.40
2019-03-16T18:54:24.444Z,12.60
2019-03-16T18:56:52.460Z,12.50
2019-03-16T18:59:20.449Z,12.50
2019-03-16T19:01:49.333Z,12.60
2019-03-16T19:04:17.319Z,12.40
2019-03-16T19:06:45.224Z,12.40
2019-03-16T19:09:13.158Z,12.70
2019-03-16T19:11:41.405Z,12.70
2019-03-16T19:14:09.270Z,12.60
2019-03-16T19:16:37.243Z,12.70
2019-03-16T19:19:05.281Z,12.60
2019-03-16T19:21:33.119Z,12.60
2019-03-16T19:24:00.956Z,12.70
2019-03-16T19:26:30.190Z,12.60
2019-03-16T19:28:58.505Z,12.50
2019-03-16T19:31:26.439Z,12.80
2019-03-16T19:33:54.260Z,12.60
2019-03-16T19:36:22.313Z,12.50
2019-03-16T19:38:50.280Z,12.50
2019-03-16T19:41:18.271Z,12.50
2019-03-16T19:43:46.138Z,12.70
2019-03-16T19:46:16.945Z,12.50
2019-03-16T19:48:45.038Z,12.50
2019-03-16T19:51:12.850Z,12.50
2019-03-16T19:53:40.710Z,12.40
2019-03-16T19:56:09.045Z,12.70
2019-03-16T19:58:37.157Z,12.50
2019-03-16T20:01:05.117Z,12.40
2019-03-16T20:03:32.993Z,12.60
2019-03-16T20:06:00.804Z,12.60
2019-03-16T20:08:28.830Z,12.60
2019-03-16T20:11:05.978Z,12.50
2019-03-16T20:13:26.361Z,12.60
2019-03-16T20:15:54.384Z,12.30
2019-03-16T20:18:22.315Z,12.40
2019-03-16T20:20:50.696Z,12.50
2019-03-16T20:23:18.900Z,12.60
2019-03-16T20:25:46.760Z,12.40
2019-03-16T20:28:14.787Z,12.70
2019-03-16T20:30:42.616Z,12.50
2019-03-16T20:33:10.621Z,12.40
2019-03-16T20:35:38.462Z,12.50
2019-03-16T20:38:06.768Z,12.30
2019-03-16T20:40:34.750Z,12.40
2019-03-16T20:43:02.558Z,12.50
2019-03-16T20:45:30.625Z,12.60
2019-03-16T20:47:58.764Z,12.50
2019-03-16T20:50:26.577Z,12.70
2019-03-16T20:52:54.419Z,12.50
2019-03-16T20:55:22.596Z,12.60
2019-03-16T20:57:50.649Z,12.70
2019-03-16T21:00:18.460Z,12.50
2019-03-16T21:02:48.557Z,12.70
2019-03-16T21:05:16.379Z,12.70
2019-03-16T21:07:44.634Z,12.60
2019-03-16T21:10:12.669Z,12.60
2019-03-16T21:12:40.742Z,12.50
2019-03-16T21:15:09.115Z,12.70
2019-03-16T21:17:36.920Z,12.60
2019-03-16T21:20:06.999Z,12.40
2019-03-16T21:22:38.753Z,12.50
2019-03-16T21:25:05.603Z,12.50
2019-03-16T21:27:33.439Z,12.30
2019-03-16T21:30:02.320Z,12.30
2019-03-16T21:32:30.275Z,12.50
2019-03-16T21:34:58.238Z,12.60
2019-03-16T21:37:26.053Z,12.40
2019-03-16T21:39:53.896Z,12.50
2019-03-16T21:42:21.859Z,12.50
2019-03-16T21:44:49.767Z,12.50
2019-03-16T21:47:17.688Z,12.60
2019-03-16T21:49:45.639Z,12.40
2019-03-16T21:52:13.656Z,12.60
2019-03-16T21:54:41.459Z,12.50
2019-03-16T21:57:09.358Z,12.60
2019-03-16T21:59:37.357Z,12.60
2019-03-16T22:02:05.543Z,12.00
2019-03-16T22:04:33.476Z,12.50
2019-03-16T22:07:01.497Z,12.50
2019-03-16T22:09:29.281Z,12.60
2019-03-16T22:11:57.120Z,12.60
2019-03-16T22:14:25.172Z,12.10
2019-03-16T22:16:53.010Z,12.60
2019-03-16T22:19:20.942Z,12.30
2019-03-16T22:21:48.745Z,12.50
2019-03-16T22:24:16.759Z,12.10
2019-03-16T22:26:45.293Z,12.30
2019-03-16T22:29:13.491Z,12.20
2019-03-16T22:31:41.288Z,12.20
2019-03-16T22:34:09.428Z,12.30
2019-03-16T22:36:37.298Z,12.00
2019-03-16T22:39:07.704Z,12.20
2019-03-16T22:41:35.560Z,12.40
2019-03-16T22:44:03.766Z,12.20
2019-03-16T22:46:31.946Z,12.20
2019-03-16T22:48:59.918Z,12.10
2019-03-16T22:51:27.866Z,11.90
2019-03-16T22:53:56.152Z,12.00
2019-03-16T22:56:23.955Z,11.80
2019-03-16T22:58:53.185Z,12.00
2019-03-16T23:01:21.278Z,12.00
2019-03-16T23:03:49.183Z,12.10
2019-03-16T23:06:17.026Z,12.20
2019-03-16T23:08:44.972Z,11.90
2019-03-16T23:11:13.006Z,12.50
2019-03-16T23:13:41.177Z,11.90
2019-03-16T23:16:09.047Z,12.60
2019-03-16T23:18:37.744Z,12.00
2019-03-16T23:21:05.828Z,12.30
2019-03-16T23:23:33.932Z,12.60
2019-03-16T23:26:03.611Z,12.50
2019-03-16T23:28:31.860Z,12.20
2019-03-16T23:31:00.033Z,12.30
2019-03-16T23:33:28.148Z,12.40
2019-03-16T23:35:56.347Z,12.50
2019-03-16T23:38:24.435Z,12.60
2019-03-16T23:40:52.462Z,12.40
2019-03-16T23:43:20.435Z,11.90
2019-03-16T23:45:48.415Z,12.00
2019-03-16T23:48:17.333Z,12.60
2019-03-16T23:50:45.147Z,12.60
2019-03-16T23:53:14.729Z,12.50
2019-03-16T23:55:42.758Z,12.60
2019-03-16T23:58:10.737Z,12.60
